Time;durP1;ratioP1;P1;durP2;ratioP2;P2;SDS_P1;SDS_P2;PMS_P1;PMS_P2;Temp;Humidity;BMP_temperature;BMP_pressure;BME280_temperature;BME280_humidity;BME280_pressure;Samples;Min_cycle;Max_cycle;Signal;HPM_P1;HPM_P2
2021/07/20 00:00:01;;;;;;;14.13;9.28;;;;;;;14.32;70.07;100309.23;2152332;80;21525;-77
2021/07/20 00:03:06;;;;;;;17.95;9.25;;;;;;;14.28;70.29;100309.82;2170592;80;21058;-74
2021/07/20 00:06:07;;;;;;;12.75;9.55;;;;;;;14.23;70.37;100307.70;2164478;80;20995;-73
2021/07/20 00:09:08;;;;;;;16.12;10.05;;;;;;;14.16;70.27;100310.77;2169497;80;21069;-82
2021/07/20 00:12:10;;;;;;;13.93;9.18;;;;;;;14.09;70.50;100309.36;2157127;80;21080;-73
2021/07/20 00:15:14;;;;;;;14.07;9.28;;;;;;;14.09;70.60;100308.54;2161651;80;21061;-74
2021/07/20 00:18:20;;;;;;;17.55;9.88;;;;;;;14.07;70.75;100304.70;2168383;80;21507;-73
2021/07/20 00:21:22;;;;;;;12.90;8.43;;;;;;;14.03;70.75;100298.61;2161527;80;21067;-73
2021/07/20 00:24:23;;;;;;;17.35;10.20;;;;;;;14.00;70.88;100297.65;2176970;80;21648;-73
2021/07/20 00:27:25;;;;;;;18.35;10.43;;;;;;;13.96;70.95;100292.34;2165395;80;21038;-73
2021/07/20 00:30:27;;;;;;;14.53;10.50;;;;;;;13.93;71.22;100298.05;2157565;80;22176;-72
2021/07/20 00:33:29;;;;;;;12.98;9.93;;;;;;;13.87;71.18;100293.77;2158740;80;21108;-74
2021/07/20 00:36:30;;;;;;;14.23;9.88;;;;;;;13.82;71.27;100292.15;2176263;80;21073;-73
2021/07/20 00:39:33;;;;;;;17.62;10.05;;;;;;;13.80;71.37;100294.20;2150284;80;22377;-74
2021/07/20 00:42:36;;;;;;;18.37;10.20;;;;;;;13.78;71.45;100295.39;2151292;80;20996;-73
2021/07/20 00:45:38;;;;;;;17.10;10.15;;;;;;;13.74;71.51;100292.27;2149164;80;21101;-73
2021/07/20 00:48:40;;;;;;;17.95;10.98;;;;;;;13.70;71.53;100301.63;2166531;80;21123;-73
2021/07/20 00:51:43;;;;;;;15.32;9.48;;;;;;;13.67;71.55;100294.81;2152887;80;21606;-74
2021/07/20 00:54:46;;;;;;;14.90;9.50;;;;;;;13.63;71.56;100297.54;2162031;80;21032;-79
2021/07/20 00:57:49;;;;;;;13.95;10.23;;;;;;;13.58;71.65;100294.59;2177658;80;21121;-72
2021/07/20 01:00:52;;;;;;;18.30;10.18;;;;;;;13.56;71.79;100291.77;2128475;81;21609;-77
2021/07/20 01:03:56;;;;;;;13.98;9.03;;;;;;;13.53;71.80;100288.97;2167758;80;21169;-74
2021/07/20 01:07:01;;;;;;;15.95;9.85;;;;;;;13.51;71.95;100288.31;2164059;80;21075;-74
2021/07/20 01:10:09;;;;;;;17.25;10.32;;;;;;;13.48;71.85;100283.86;2176472;80;21103;-77
2021/07/20 01:13:12;;;;;;;13.65;9.13;;;;;;;13.43;71.94;100285.24;2169905;80;21110;-76
2021/07/20 01:16:15;;;;;;;14.33;9.78;;;;;;;13.40;71.99;100282.94;2161264;80;21096;-75
2021/07/20 01:19:18;;;;;;;15.30;10.20;;;;;;;13.38;72.08;100287.62;2133127;80;21125;-72
2021/07/20 01:22:27;;;;;;;18.48;10.18;;;;;;;13.40;72.26;100286.09;2156714;80;21112;-77
2021/07/20 01:25:30;;;;;;;17.73;9.93;;;;;;;13.40;72.42;100282.94;2161898;80;21034;-73
2021/07/20 01:28:33;;;;;;;16.27;9.93;;;;;;;13.42;72.65;100279.56;2165270;80;21111;-74
2021/07/20 01:31:39;;;;;;;14.68;9.38;;;;;;;13.39;72.61;100279.11;2164205;80;20985;-76
2021/07/20 01:34:45;;;;;;;17.40;9.00;;;;;;;13.33;72.57;100275.84;2169010;80;21063;-74
2021/07/20 01:37:49;;;;;;;16.35;9.85;;;;;;;13.31;72.70;100263.20;2173574;80;21105;-83
2021/07/20 01:40:56;;;;;;;22.15;10.43;;;;;;;13.29;72.74;100263.39;2161688;80;21574;-74
2021/07/20 01:44:06;;;;;;;12.65;9.10;;;;;;;13.27;72.87;100265.40;2148863;80;21050;-79
2021/07/20 01:47:10;;;;;;;14.05;8.98;;;;;;;13.28;72.99;100261.72;2164491;80;21034;-74
2021/07/20 01:50:16;;;;;;;12.37;9.18;;;;;;;13.32;73.03;100269.69;2156107;80;21073;-75
2021/07/20 01:53:20;;;;;;;16.15;10.05;;;;;;;13.29;73.06;100266.06;2165010;80;21507;-73
2021/07/20 01:56:22;;;;;;;17.17;9.35;;;;;;;13.28;73.22;100266.22;2167193;80;21135;-73
2021/07/20 01:59:24;;;;;;;14.47;8.85;;;;;;;13.28;73.37;100260.38;2086110;83;21081;-74
2021/07/20 02:02:35;;;;;;;13.40;10.10;;;;;;;13.29;73.51;100266.06;2087273;83;21145;-75
2021/07/20 02:09:07;;;;;;;18.17;10.20;;;;;;;13.30;73.76;100257.55;2010091;86;21151;-76
2021/07/20 02:12:15;;;;;;;12.85;10.15;;;;;;;13.34;73.92;100259.66;2165723;80;21077;-74
2021/07/20 02:15:37;;;;;;;17.30;9.75;;;;;;;13.38;74.01;100266.30;2163183;79;21126;-74
2021/07/20 02:18:48;;;;;;;18.15;9.73;;;;;;;13.42;74.07;100257.42;2168884;80;21070;-77
2021/07/20 02:21:56;;;;;;;15.05;10.43;;;;;;;13.46;74.06;100266.73;2156983;80;20994;-75
2021/07/20 02:24:58;;;;;;;14.43;10.80;;;;;;;13.50;74.11;100262.67;2175057;80;21075;-75
2021/07/20 02:28:02;;;;;;;15.48;10.23;;;;;;;13.52;74.20;100264.66;2164073;79;21094;-74
2021/07/20 02:31:09;;;;;;;14.05;9.93;;;;;;;13.54;74.20;100263.13;2176599;80;21559;-75
2021/07/20 02:34:16;;;;;;;16.48;10.23;;;;;;;13.55;74.21;100255.47;2125189;80;21613;-73
2021/07/20 02:37:21;;;;;;;16.10;9.95;;;;;;;13.56;74.29;100258.45;2166431;80;21514;-74
2021/07/20 02:40:25;;;;;;;20.05;10.58;;;;;;;13.60;74.33;100265.06;2161833;80;20998;-73
2021/07/20 02:43:27;;;;;;;24.20;11.10;;;;;;;13.62;74.38;100273.72;2155423;80;21501;-83
2021/07/20 02:46:30;;;;;;;13.90;9.78;;;;;;;13.61;74.34;100269.41;2130331;80;21105;-78
2021/07/20 02:49:36;;;;;;;16.93;9.45;;;;;;;13.62;74.48;100275.87;2161076;80;21028;-77
2021/07/20 02:52:42;;;;;;;18.80;10.25;;;;;;;13.63;74.49;100275.39;2163244;80;22816;-76
2021/07/20 02:55:51;;;;;;;17.48;10.58;;;;;;;13.63;74.52;100272.72;2163294;80;21057;-73
2021/07/20 02:58:58;;;;;;;17.87;10.50;;;;;;;13.63;74.54;100272.21;2159127;80;21038;-76
2021/07/20 03:02:20;;;;;;;18.37;11.45;;;;;;;13.62;74.47;100276.38;2065811;83;21084;-75
2021/07/20 03:05:23;;;;;;;16.95;10.38;;;;;;;13.63;74.52;100271.39;2061761;83;21035;-77
2021/07/20 03:08:28;;;;;;;19.77;10.70;;;;;;;13.60;74.48;100269.06;2129260;80;21117;-78
2021/07/20 03:11:36;;;;;;;14.33;9.23;;;;;;;13.57;74.48;100273.42;2166072;80;21031;-74
2021/07/20 03:14:39;;;;;;;14.83;10.43;;;;;;;13.55;74.47;100276.80;2145724;80;21599;-77
2021/07/20 03:17:44;;;;;;;15.72;9.68;;;;;;;13.54;74.51;100270.62;2165846;80;21006;-75
2021/07/20 03:20:47;;;;;;;13.60;9.88;;;;;;;13.52;74.46;100276.66;2155392;80;21112;-74
2021/07/20 03:23:51;;;;;;;13.98;9.60;;;;;;;13.52;74.53;100277.17;2149343;80;21082;-80
2021/07/20 03:26:54;;;;;;;17.92;11.15;;;;;;;13.53;74.68;100278.81;2161088;80;21031;-76
2021/07/20 03:29:56;;;;;;;16.37;10.95;;;;;;;13.55;74.76;100278.14;2177613;79;21656;-75
2021/07/20 03:33:03;;;;;;;17.50;10.72;;;;;;;13.53;74.83;100270.30;2163908;80;22437;-75
2021/07/20 03:36:17;;;;;;;14.20;9.85;;;;;;;13.53;74.83;100271.64;2156432;80;21602;-75
2021/07/20 03:39:20;;;;;;;16.42;11.40;;;;;;;13.54;74.85;100276.45;2148667;80;21163;-75
2021/07/20 03:42:25;;;;;;;15.03;10.60;;;;;;;13.55;74.84;100272.80;2163663;80;21068;-75
2021/07/20 03:45:28;;;;;;;15.18;10.72;;;;;;;13.53;74.83;100269.48;2152229;79;21063;-75
2021/07/20 03:48:31;;;;;;;18.90;10.28;;;;;;;13.57;74.84;100274.76;2121143;80;22584;-76
2021/07/20 03:51:35;;;;;;;14.15;10.20;;;;;;;13.57;74.78;100279.61;2176099;80;21054;-75
2021/07/20 03:54:39;;;;;;;17.10;10.30;;;;;;;13.55;74.79;100280.29;2163539;79;21119;-76
2021/07/20 03:57:42;;;;;;;16.95;10.70;;;;;;;13.54;74.77;100276.45;2157494;80;21092;-73
2021/07/20 04:00:49;;;;;;;21.95;11.05;;;;;;;13.52;74.99;100273.17;2145997;80;21643;-73
2021/07/20 04:03:52;;;;;;;15.48;11.15;;;;;;;13.47;74.98;100276.38;2166085;80;21091;-73
2021/07/20 04:07:18;;;;;;;18.15;10.98;;;;;;;13.43;75.10;100274.58;2165779;80;21602;-79
2021/07/20 04:10:38;;;;;;;14.18;9.68;;;;;;;13.45;75.27;100279.20;2142357;80;21128;-74
2021/07/20 04:13:48;;;;;;;18.30;11.88;;;;;;;13.51;75.35;100280.31;2161226;80;21061;-76
2021/07/20 04:16:55;;;;;;;14.60;10.85;;;;;;;13.56;75.41;100277.94;2141682;81;21092;-73
2021/07/20 04:19:57;;;;;;;16.23;11.33;;;;;;;13.64;75.54;100274.37;2170326;80;21553;-78
2021/07/20 04:23:00;;;;;;;16.23;10.75;;;;;;;13.68;75.62;100275.16;2175794;80;21058;-77
2021/07/20 04:26:04;;;;;;;15.55;11.15;;;;;;;13.78;75.73;100278.88;2161928;80;21067;-74
2021/07/20 04:29:07;;;;;;;19.23;11.05;;;;;;;13.90;75.83;100281.39;2143148;80;21517;-74
2021/07/20 04:32:10;;;;;;;19.10;11.55;;;;;;;14.06;75.85;100282.23;2162965;80;21106;-76
2021/07/20 04:35:17;;;;;;;22.62;11.90;;;;;;;14.22;75.83;100277.17;2179132;80;21043;-73
2021/07/20 04:38:22;;;;;;;22.90;11.97;;;;;;;14.38;75.72;100277.48;2164718;80;20968;-74
2021/07/20 04:41:24;;;;;;;16.52;11.10;;;;;;;14.57;75.83;100279.58;2180626;80;21176;-74
2021/07/20 04:44:25;;;;;;;22.65;12.45;;;;;;;14.73;75.75;100279.86;2166046;80;21042;-74
2021/07/20 04:47:47;;;;;;;14.18;9.95;;;;;;;14.95;75.74;100275.33;2164424;80;21708;-76
2021/07/20 04:51:08;;;;;;;17.50;11.27;;;;;;;15.27;75.62;100279.33;2174623;80;21185;-77
2021/07/20 04:54:14;;;;;;;22.25;10.48;;;;;;;15.54;75.40;100282.19;2167736;80;21100;-73
2021/07/20 04:57:16;;;;;;;16.23;10.70;;;;;;;15.86;75.05;100288.81;2162923;80;21129;-75
2021/07/20 05:00:17;;;;;;;17.57;10.72;;;;;;;16.25;75.21;100283.35;2182366;80;21340;-75
2021/07/20 05:03:23;;;;;;;19.62;10.93;;;;;;;16.92;74.63;100284.37;2159539;80;21097;-80
2021/07/20 05:06:26;;;;;;;16.23;10.00;;;;;;;17.14;73.75;100283.67;2154305;80;21043;-74
2021/07/20 05:09:28;;;;;;;14.18;10.60;;;;;;;17.22;73.25;100282.95;2146804;80;21080;-82
2021/07/20 05:12:32;;;;;;;13.45;10.58;;;;;;;17.26;72.96;100286.06;2143879;80;21121;-75
2021/07/20 05:15:38;;;;;;;14.78;9.28;;;;;;;17.29;72.78;100292.36;2152884;80;21135;-78
2021/07/20 05:18:46;;;;;;;20.92;9.43;;;;;;;17.38;72.87;100302.36;2135218;80;21062;-76
2021/07/20 05:22:02;;;;;;;;;;;;;;;17.52;72.68;100297.81;2102801;80;21059;-73
2021/07/20 05:25:11;;;;;;;20.25;9.35;;;;;;;17.75;72.24;100304.07;2156044;80;20162;-73
2021/07/20 05:28:14;;;;;;;16.37;9.48;;;;;;;17.89;72.22;100304.38;2163537;80;21128;-73
2021/07/20 05:31:16;;;;;;;13.83;9.50;;;;;;;18.05;71.98;100305.80;2144396;80;21157;-77
2021/07/20 05:34:20;;;;;;;18.87;10.28;;;;;;;18.18;71.63;100308.42;2152485;80;21053;-73
2021/07/20 05:37:23;;;;;;;17.12;9.80;;;;;;;18.30;71.39;100316.14;2142943;80;21110;-77
2021/07/20 05:40:27;;;;;;;18.55;9.13;;;;;;;18.33;70.62;100314.38;2156632;80;21160;-74
2021/07/20 05:43:33;;;;;;;22.02;9.58;;;;;;;18.20;70.56;100314.94;2160492;80;21073;-73
2021/07/20 05:46:37;;;;;;;15.72;9.15;;;;;;;18.22;70.53;100315.03;2167197;80;21171;-73
2021/07/20 05:49:40;;;;;;;14.75;9.95;;;;;;;18.35;70.55;100321.67;2170122;80;21073;-78
2021/07/20 05:52:47;;;;;;;16.57;9.63;;;;;;;18.33;70.11;100319.74;2170513;80;21537;-72
2021/07/20 05:55:55;;;;;;;15.85;9.83;;;;;;;18.57;70.17;100322.73;2164637;80;21596;-73
2021/07/20 05:59:00;;;;;;;16.70;10.00;;;;;;;18.74;69.79;100321.74;2160479;80;21075;-73
2021/07/20 06:02:02;;;;;;;16.45;9.05;;;;;;;18.83;69.12;100324.47;2132822;81;21134;-72
2021/07/20 06:05:08;;;;;;;15.70;9.38;;;;;;;18.88;68.92;100325.18;2127831;80;21037;-72
2021/07/20 06:08:15;;;;;;;11.83;8.60;;;;;;;18.89;68.45;100325.47;2174009;79;21089;-74
2021/07/20 06:11:18;;;;;;;17.70;9.25;;;;;;;19.11;68.47;100336.72;2157411;80;21055;-72
2021/07/20 06:14:22;;;;;;;15.20;8.18;;;;;;;19.25;68.17;100343.64;2149838;80;21342;-72
2021/07/20 06:17:25;;;;;;;13.22;8.05;;;;;;;19.42;67.87;100346.63;2171057;80;21065;-72
2021/07/20 06:20:26;;;;;;;14.78;8.03;;;;;;;19.45;67.42;100351.56;2176092;80;21043;-72
2021/07/20 06:23:38;;;;;;;15.43;8.25;;;;;;;19.35;67.19;100351.25;2163888;80;21058;-74
2021/07/20 06:26:41;;;;;;;17.70;8.38;;;;;;;19.38;67.19;100350.28;2155866;80;21047;-72
2021/07/20 06:29:45;;;;;;;11.45;8.33;;;;;;;19.49;66.95;100344.19;2137357;80;21027;-73
2021/07/20 06:32:48;;;;;;;10.72;7.35;;;;;;;19.58;66.97;100340.69;2171798;79;21597;-73
2021/07/20 06:35:50;;;;;;;14.43;8.40;;;;;;;20.25;66.65;100345.45;2123037;81;21569;-73
2021/07/20 06:38:54;;;;;;;12.90;7.97;;;;;;;21.02;66.13;100344.37;2125580;81;21108;-71
2021/07/20 06:41:57;;;;;;;11.03;7.10;;;;;;;21.62;65.18;100343.44;2121302;82;21074;-73
2021/07/20 06:45:01;;;;;;;11.10;7.25;;;;;;;21.75;64.15;100335.12;2123919;82;21063;-74
2021/07/20 06:48:06;;;;;;;10.88;7.30;;;;;;;21.80;63.11;100337.95;2130283;81;21118;-73
2021/07/20 06:51:09;;;;;;;10.72;7.00;;;;;;;22.11;62.76;100345.37;2119471;81;21041;-75
2021/07/20 06:54:12;;;;;;;10.05;6.15;;;;;;;22.37;61.89;100341.35;2105319;81;21635;-73
2021/07/20 06:57:19;;;;;;;11.68;6.72;;;;;;;22.76;61.54;100345.09;2112603;81;21169;-72
2021/07/20 07:00:24;;;;;;;13.38;6.55;;;;;;;23.13;60.68;100333.89;2167048;80;21054;-73
2021/07/20 07:03:40;;;;;;;11.22;6.62;;;;;;;23.59;59.92;100338.69;2175313;80;21142;-74
2021/07/20 07:06:50;;;;;;;9.73;6.60;;;;;;;23.72;58.71;100337.57;2178063;80;21032;-72
2021/07/20 07:10:13;;;;;;;16.12;6.33;;;;;;;23.85;58.30;100336.38;2169827;80;21582;-73
2021/07/20 07:13:17;;;;;;;10.53;5.83;;;;;;;24.05;57.38;100339.94;2105415;82;21077;-71
2021/07/20 07:16:20;;;;;;;9.68;6.05;;;;;;;24.39;57.45;100336.58;2105688;82;21118;-71
2021/07/20 07:19:23;;;;;;;10.45;6.03;;;;;;;24.43;56.41;100335.02;2086460;82;21193;-72
2021/07/20 07:22:25;;;;;;;7.22;5.62;;;;;;;24.71;55.84;100331.80;2100022;82;21442;-77
2021/07/20 07:25:28;;;;;;;10.80;6.55;;;;;;;24.77;54.22;100338.91;2106184;81;21624;-74
2021/07/20 07:28:32;;;;;;;8.50;5.45;;;;;;;24.59;54.56;100338.19;2106258;82;21104;-71
2021/07/20 07:31:34;;;;;;;9.98;6.28;;;;;;;24.56;54.55;100338.70;2113028;82;21105;-83
2021/07/20 07:34:37;;;;;;;14.07;6.37;;;;;;;24.63;54.43;100340.39;2125145;81;21635;-71
2021/07/20 07:37:39;;;;;;;7.62;5.85;;;;;;;24.79;54.25;100337.59;2117127;81;21760;-70
2021/07/20 07:40:42;;;;;;;10.95;5.83;;;;;;;25.14;53.29;100336.83;2098256;82;21755;-72
2021/07/20 07:43:45;;;;;;;12.50;5.85;;;;;;;25.34;53.51;100330.27;2107701;82;21038;-72
2021/07/20 07:46:49;;;;;;;13.28;5.85;;;;;;;25.24;53.04;100335.60;2121385;81;21045;-71
2021/07/20 07:49:51;;;;;;;8.10;5.83;;;;;;;25.13;52.67;100331.13;2110466;81;21069;-71
2021/07/20 07:52:56;;;;;;;8.38;5.70;;;;;;;25.08;52.33;100332.44;2118672;82;22364;-71
2021/07/20 07:55:59;;;;;;;10.63;5.78;;;;;;;24.94;52.70;100325.25;2107293;81;21024;-72
2021/07/20 07:59:04;;;;;;;9.25;5.72;;;;;;;24.78;52.34;100336.50;2079847;82;21118;-71
2021/07/20 08:02:10;;;;;;;6.70;4.55;;;;;;;24.42;52.23;100323.86;2116696;81;21674;-71
2021/07/20 08:05:13;;;;;;;6.65;4.37;;;;;;;24.41;51.33;100328.17;2112750;81;21046;-71
2021/07/20 08:08:16;;;;;;;7.95;4.45;;;;;;;24.50;51.85;100322.64;2106895;81;21002;-71
2021/07/20 08:11:19;;;;;;;6.80;4.20;;;;;;;25.03;51.83;100319.11;2100920;82;21700;-71
2021/07/20 08:14:21;;;;;;;8.50;3.87;;;;;;;25.55;50.50;100315.47;2112819;81;21064;-72
2021/07/20 08:17:24;;;;;;;7.20;4.22;;;;;;;25.81;48.96;100312.37;2111244;81;21730;-71
2021/07/20 08:20:27;;;;;;;7.78;4.28;;;;;;;25.96;49.28;100304.34;2123435;81;21070;-72
2021/07/20 08:23:31;;;;;;;9.48;4.05;;;;;;;25.87;49.07;100309.44;2105128;82;21165;-73
2021/07/20 08:26:46;;;;;;;8.00;3.77;;;;;;;26.18;48.22;100312.86;2120413;81;21084;-71
2021/07/20 08:29:52;;;;;;;6.00;4.00;;;;;;;26.07;47.89;100319.63;2099630;81;21047;-71
2021/07/20 08:32:58;;;;;;;7.15;4.20;;;;;;;26.47;47.78;100312.70;2109452;82;21732;-72
2021/07/20 08:36:07;;;;;;;6.33;3.70;;;;;;;26.24;46.93;100315.32;2110409;82;21188;-72
2021/07/20 08:39:11;;;;;;;5.78;3.80;;;;;;;25.89;47.25;100314.63;2102321;81;21109;-70
2021/07/20 08:42:44;;;;;;;4.80;3.92;;;;;;;26.09;46.57;100316.08;2103494;81;21070;-71
2021/07/20 08:46:25;;;;;;;7.80;4.35;;;;;;;26.14;47.14;100309.31;2112656;81;21065;-71
2021/07/20 08:49:41;;;;;;;7.78;4.50;;;;;;;26.46;45.52;100315.13;2110334;82;21109;-71
2021/07/20 08:52:48;;;;;;;6.67;3.92;;;;;;;26.49;46.08;100309.70;2112868;82;21105;-71
2021/07/20 08:55:53;;;;;;;6.90;4.20;;;;;;;26.56;44.97;100321.19;2108512;81;21064;-70
2021/07/20 08:59:06;;;;;;;7.33;4.22;;;;;;;26.96;45.41;100319.63;2116495;81;21617;-71
2021/07/20 09:02:22;;;;;;;5.35;4.17;;;;;;;27.47;44.71;100320.47;2112274;81;21068;-72
2021/07/20 09:05:48;;;;;;;6.92;4.53;;;;;;;27.85;44.12;100320.19;2119691;81;21172;-71
2021/07/20 09:09:09;;;;;;;4.80;3.80;;;;;;;27.97;43.66;100321.23;2118230;81;21081;-71
2021/07/20 09:12:16;;;;;;;7.17;4.47;;;;;;;27.62;43.49;100322.37;2114732;81;21536;-71
2021/07/20 09:15:25;;;;;;;8.30;3.83;;;;;;;26.90;41.05;100323.44;2125834;82;21870;-71
2021/07/20 09:18:45;;;;;;;7.58;4.62;;;;;;;26.19;42.81;100315.88;2114362;81;20996;-72
2021/07/20 09:21:50;;;;;;;6.35;4.15;;;;;;;25.82;43.36;100323.51;2108912;81;21072;-72
2021/07/20 09:25:06;;;;;;;6.47;4.37;;;;;;;25.64;43.32;100319.33;2100885;81;21097;-70
2021/07/20 09:28:32;;;;;;;8.35;5.30;;;;;;;25.03;43.38;100324.54;2106836;81;21018;-71
2021/07/20 09:31:54;;;;;;;7.58;4.53;;;;;;;24.73;44.23;100322.34;2101951;82;21635;-71
2021/07/20 09:35:16;;;;;;;6.45;4.17;;;;;;;24.58;44.89;100326.22;2104234;81;21613;-70
2021/07/20 09:38:49;;;;;;;7.03;4.33;;;;;;;24.94;45.63;100321.17;2113589;81;21045;-71
2021/07/20 09:41:55;;;;;;;8.95;4.12;;;;;;;25.56;44.88;100313.84;2118829;81;21572;-72
2021/07/20 09:45:12;;;;;;;5.67;3.62;;;;;;;26.12;43.19;100312.02;2100212;81;21034;-72
2021/07/20 09:48:24;;;;;;;6.60;4.10;;;;;;;25.99;42.59;100310.61;2107049;81;21081;-74
2021/07/20 09:51:32;;;;;;;7.65;4.55;;;;;;;25.84;42.96;100304.53;2117162;81;21088;-72
2021/07/20 09:55:13;;;;;;;6.10;4.17;;;;;;;25.71;43.18;100303.63;2066194;83;21123;-71
2021/07/20 09:58:30;;;;;;;5.65;4.08;;;;;;;25.68;43.08;100306.88;2077913;83;21073;-71
2021/07/20 10:01:48;;;;;;;7.87;4.45;;;;;;;25.53;42.90;100305.40;2036864;84;21114;-71
2021/07/20 10:05:15;;;;;;;5.45;4.33;;;;;;;25.73;42.52;100300.09;2075043;83;21101;-73
2021/07/20 10:08:56;;;;;;;5.05;3.83;;;;;;;25.81;42.29;100294.70;2080404;83;21089;-70
2021/07/20 10:12:06;;;;;;;5.53;4.40;;;;;;;25.94;42.67;100292.91;2079591;82;21184;-78
2021/07/20 10:15:14;;;;;;;7.67;4.80;;;;;;;26.23;42.75;100293.84;2110679;81;21003;-73
2021/07/20 10:18:22;;;;;;;7.05;4.70;;;;;;;26.44;42.27;100290.63;2109727;81;21061;-74
2021/07/20 10:21:29;;;;;;;5.80;4.12;;;;;;;26.52;42.69;100296.95;2122869;81;21034;-73
2021/07/20 10:24:34;;;;;;;8.28;5.87;;;;;;;26.41;40.93;100291.98;2070605;83;21089;-73
2021/07/20 10:28:06;;;;;;;6.53;4.40;;;;;;;25.99;42.00;100292.94;2040835;84;21110;-74
2021/07/20 10:31:20;;;;;;;6.53;4.50;;;;;;;25.76;42.60;100289.23;2114360;81;21009;-75
2021/07/20 10:34:26;;;;;;;11.12;4.35;;;;;;;25.89;42.74;100290.16;2100690;82;21544;-74
2021/07/20 10:37:32;;;;;;;7.28;3.80;;;;;;;25.67;42.65;100285.66;2116924;81;21061;-74
2021/07/20 10:40:36;;;;;;;7.80;4.53;;;;;;;25.34;42.92;100290.89;2113436;81;21136;-74
2021/07/20 10:44:20;;;;;;;9.48;4.40;;;;;;;25.11;43.54;100291.20;2105847;82;21042;-74
2021/07/20 10:47:36;;;;;;;8.25;4.30;;;;;;;25.01;43.49;100288.69;2114174;82;21160;-74
2021/07/20 10:50:56;;;;;;;9.03;4.35;;;;;;;24.65;43.13;100292.14;2111346;81;21194;-75
2021/07/20 10:54:29;;;;;;;7.42;4.70;;;;;;;24.29;43.99;100291.70;2069164;83;21096;-74
2021/07/20 10:57:36;;;;;;;6.87;4.55;;;;;;;24.37;44.85;100298.85;2069970;84;21061;-75
2021/07/20 11:00:58;;;;;;;6.15;4.05;;;;;;;24.78;45.28;100287.67;2101062;82;21062;-74
2021/07/20 11:04:49;;;;;;;11.83;4.60;;;;;;;25.34;44.80;100289.53;2107271;81;21061;-74
2021/07/20 11:07:55;;;;;;;10.10;4.70;;;;;;;25.76;44.11;100283.25;2117853;81;21135;-75
2021/07/20 11:11:01;;;;;;;6.37;4.05;;;;;;;25.92;44.07;100290.98;2103663;81;21053;-74
2021/07/20 11:14:05;;;;;;;9.55;4.15;;;;;;;25.77;43.61;100283.55;2127401;81;21559;-74
2021/07/20 11:17:08;;;;;;;6.80;3.92;;;;;;;25.81;43.08;100286.00;2111394;81;21121;-75
2021/07/20 11:20:15;;;;;;;7.78;4.67;;;;;;;25.60;43.52;100290.52;2102305;81;21044;-74
2021/07/20 11:23:19;;;;;;;6.58;4.28;;;;;;;25.65;44.03;100283.76;2122668;81;21081;-74
2021/07/20 11:26:24;;;;;;;6.87;4.05;;;;;;;26.13;44.52;100288.65;2128642;81;21123;-74
2021/07/20 11:29:25;;;;;;;6.75;4.20;;;;;;;26.30;43.37;100288.95;2122185;82;21118;-74
2021/07/20 11:32:30;;;;;;;8.75;4.67;;;;;;;26.22;43.06;100286.78;2101315;82;21062;-75
2021/07/20 11:35:36;;;;;;;8.55;4.70;;;;;;;26.09;42.68;100289.44;2105062;82;21355;-74
2021/07/20 11:38:39;;;;;;;7.92;4.20;;;;;;;26.15;43.07;100293.80;2095204;82;21105;-74
2021/07/20 11:42:01;;;;;;;9.65;4.87;;;;;;;26.14;42.24;100289.47;2122910;82;21120;-74
2021/07/20 11:45:09;;;;;;;6.00;3.62;;;;;;;25.98;42.29;100288.56;2105729;81;21108;-74
2021/07/20 11:48:12;;;;;;;11.03;4.50;;;;;;;25.78;41.66;100286.53;2126692;81;21113;-73
2021/07/20 11:51:31;;;;;;;7.45;4.85;;;;;;;25.55;41.96;100291.02;2120010;82;21114;-75
2021/07/20 11:55:01;;;;;;;6.22;4.30;;;;;;;25.46;42.26;100290.70;2106998;81;21097;-74
2021/07/20 11:58:08;;;;;;;9.23;4.77;;;;;;;25.38;41.13;100291.99;2119151;81;21070;-73
2021/07/20 12:01:28;;;;;;;5.37;4.33;;;;;;;25.07;42.13;100287.38;2089892;82;21142;-73
2021/07/20 12:04:54;;;;;;;6.67;4.57;;;;;;;24.95;43.49;100287.01;2125782;81;21121;-76
2021/07/20 12:08:13;;;;;;;5.37;4.00;;;;;;;24.97;43.27;100294.87;2079471;83;21058;-75
2021/07/20 12:11:22;;;;;;;6.03;4.40;;;;;;;24.98;43.12;100279.70;2084998;82;21702;-77
2021/07/20 12:14:25;;;;;;;8.13;4.30;;;;;;;24.79;42.87;100286.58;2109849;82;22308;-74
2021/07/20 12:17:32;;;;;;;8.70;4.50;;;;;;;24.77;43.52;100281.94;2116798;81;21719;-74
2021/07/20 12:20:35;;;;;;;7.35;4.15;;;;;;;24.81;43.35;100285.80;2108253;82;21049;-76
2021/07/20 12:23:41;;;;;;;6.42;4.47;;;;;;;24.55;43.15;100281.47;2110156;81;21141;-72
2021/07/20 12:26:44;;;;;;;7.53;4.83;;;;;;;24.38;43.46;100282.04;2118769;81;21032;-76
2021/07/20 12:29:51;;;;;;;13.95;4.60;;;;;;;24.31;43.51;100283.60;2105210;81;21075;-77
2021/07/20 12:32:50;;;;;;;7.80;4.62;;;;;;;24.28;43.00;100280.59;2106617;82;21035;-74
2021/07/20 12:35:52;;;;;;;10.98;4.70;;;;;;;24.30;43.51;100277.91;2125385;81;21407;-71
2021/07/20 12:39:13;;;;;;;10.20;4.83;;;;;;;24.40;43.23;100278.55;2095257;82;21192;-76
2021/07/20 12:42:17;;;;;;;9.90;4.75;;;;;;;24.44;43.80;100282.95;2137520;81;21068;-73
2021/07/20 12:45:23;;;;;;;8.63;4.42;;;;;;;24.59;43.34;100285.30;2105267;82;21065;-73
2021/07/20 12:48:27;;;;;;;8.48;4.80;;;;;;;24.65;43.61;100281.28;2117917;81;21101;-76
2021/07/20 12:51:29;;;;;;;6.53;4.70;;;;;;;24.74;43.80;100279.20;2124999;82;21057;-74
2021/07/20 12:54:41;;;;;;;7.92;4.28;;;;;;;24.80;42.89;100282.78;2115987;82;21549;-77
2021/07/20 12:57:58;;;;;;;9.83;4.75;;;;;;;24.79;43.15;100286.03;2103149;82;21134;-76
2021/07/20 13:00:59;;;;;;;5.28;4.33;;;;;;;24.81;43.43;100281.18;2106384;81;21062;-76
2021/07/20 13:04:04;;;;;;;7.15;4.80;;;;;;;24.82;43.15;100284.70;2092998;81;20955;-78
2021/07/20 13:07:05;;;;;;;7.05;4.10;;;;;;;24.68;42.69;100282.13;2127805;81;21644;-75
2021/07/20 13:10:10;;;;;;;12.80;4.78;;;;;;;24.62;43.26;100281.26;2105548;81;21417;-86
2021/07/20 13:13:11;;;;;;;7.87;4.55;;;;;;;24.57;43.06;100283.37;2111018;82;21109;-85
2021/07/20 13:16:16;;;;;;;9.98;4.47;;;;;;;24.47;43.43;100280.56;2092899;82;21073;-76
2021/07/20 13:19:18;;;;;;;7.50;4.47;;;;;;;24.51;43.87;100275.44;2112888;81;21082;-80
2021/07/20 13:22:24;;;;;;;6.58;4.90;;;;;;;24.64;43.82;100278.27;2098994;82;21465;-81
2021/07/20 13:25:26;;;;;;;9.48;4.90;;;;;;;24.59;43.55;100286.66;2132038;82;21086;-76
2021/07/20 13:28:29;;;;;;;7.45;4.67;;;;;;;24.31;43.75;100283.60;2118939;81;21587;-77
2021/07/20 13:31:38;;;;;;;6.78;4.95;;;;;;;24.10;44.26;100279.00;2113533;82;21099;-79
2021/07/20 13:34:41;;;;;;;9.80;5.17;;;;;;;24.15;44.69;100279.88;2114566;81;21014;-80
2021/07/20 13:37:45;;;;;;;7.58;4.17;;;;;;;23.79;44.60;100284.55;2101502;81;21092;-81
2021/07/20 13:40:46;;;;;;;13.68;4.95;;;;;;;23.38;45.18;100292.07;2109337;81;21042;-79
2021/07/20 13:43:52;;;;;;;11.22;4.90;;;;;;;23.01;45.51;100293.91;2109587;81;21081;-75
2021/07/20 13:46:56;;;;;;;7.05;4.15;;;;;;;22.94;46.66;100294.55;2107092;81;21086;-80
2021/07/20 13:50:04;;;;;;;6.97;4.65;;;;;;;22.97;47.47;100296.27;2106914;81;21545;-75
2021/07/20 13:53:10;;;;;;;11.15;4.92;;;;;;;22.89;47.32;100302.57;2125309;81;21175;-80
2021/07/20 13:56:27;;;;;;;13.30;5.30;;;;;;;23.01;48.13;100297.43;2112234;81;21095;-75
2021/07/20 13:59:35;;;;;;;9.95;5.30;;;;;;;23.17;48.50;100304.44;2070724;83;21101;-78
2021/07/20 14:02:41;;;;;;;15.23;4.45;;;;;;;23.29;48.23;100306.55;2090228;83;21063;-77
2021/07/20 14:05:45;;;;;;;7.70;3.98;;;;;;;23.34;47.55;100307.15;2083983;83;21133;-77
2021/07/20 14:08:47;;;;;;;8.98;3.92;;;;;;;23.32;47.46;100305.24;2051667;84;21088;-76
2021/07/20 14:11:48;;;;;;;5.42;4.17;;;;;;;23.20;47.00;100306.14;2060094;84;21072;-78
2021/07/20 14:14:55;;;;;;;8.68;4.97;;;;;;;23.10;46.94;100304.61;2036767;84;21122;-75
2021/07/20 14:17:58;;;;;;;6.62;4.30;;;;;;;23.04;47.26;100312.36;2074750;83;21099;-73
2021/07/20 14:21:06;;;;;;;8.98;4.62;;;;;;;22.90;47.13;100313.16;2067462;83;21055;-76
2021/07/20 14:24:12;;;;;;;8.23;4.35;;;;;;;22.86;47.54;100311.99;2063487;84;21082;-76
2021/07/20 14:27:15;;;;;;;5.92;4.20;;;;;;;22.78;47.52;100306.47;2027935;84;21194;-75